createdAt,value
2023-01-15T00:04:31.162Z,0.00
2023-01-15T00:09:31.126Z,0.00
2023-01-15T00:14:31.046Z,0.00
2023-01-15T00:19:31.023Z,0.00
2023-01-15T00:24:30.893Z,0.00
2023-01-15T00:29:30.853Z,0.00
2023-01-15T00:34:30.760Z,0.00
2023-01-15T00:39:30.711Z,0.00
2023-01-15T00:44:30.653Z,0.00
2023-01-15T00:49:30.578Z,0.00
2023-01-15T00:54:30.504Z,0.00
2023-01-15T00:59:30.460Z,0.00
2023-01-15T01:04:30.358Z,0.00
2023-01-15T01:09:54.348Z,0.00
2023-01-15T01:14:46.652Z,0.00
2023-01-15T01:19:46.583Z,0.00
2023-01-15T01:24:46.495Z,0.00
2023-01-15T01:29:46.429Z,0.00
2023-01-15T01:34:46.365Z,0.00
2023-01-15T01:39:46.272Z,0.00
2023-01-15T01:44:46.240Z,0.00
2023-01-15T01:49:46.154Z,0.00
2023-01-15T01:54:46.106Z,0.00
2023-01-15T01:59:46.045Z,0.00
2023-01-15T02:04:45.967Z,0.00
2023-01-15T02:09:45.904Z,0.00
2023-01-15T02:14:45.822Z,0.00
2023-01-15T02:19:45.744Z,0.00
2023-01-15T02:24:45.707Z,0.00
2023-01-15T02:29:45.628Z,0.00
2023-01-15T02:34:45.575Z,0.00
2023-01-15T02:39:45.479Z,0.00
2023-01-15T02:44:45.422Z,0.00
2023-01-15T02:49:45.354Z,0.00
2023-01-15T02:54:45.333Z,0.00
2023-01-15T02:59:45.222Z,0.00
2023-01-15T03:04:45.213Z,0.00
2023-01-15T03:09:45.083Z,0.00
2023-01-15T03:14:45.031Z,0.00
2023-01-15T03:19:44.964Z,0.00
2023-01-15T03:24:44.904Z,0.00
2023-01-15T03:29:44.823Z,0.00
2023-01-15T03:34:44.776Z,0.00
2023-01-15T03:39:44.677Z,0.00
2023-01-15T03:44:44.622Z,0.00
2023-01-15T03:49:44.552Z,0.00
2023-01-15T03:54:44.518Z,0.00
2023-01-15T03:59:44.403Z,0.00
2023-01-15T04:04:44.371Z,0.00
2023-01-15T04:09:44.292Z,0.00
2023-01-15T04:14:44.271Z,0.00
2023-01-15T04:19:44.173Z,0.00
2023-01-15T04:24:44.087Z,0.00
2023-01-15T04:29:44.011Z,0.00
2023-01-15T04:34:43.984Z,0.00
2023-01-15T04:39:43.917Z,0.00
2023-01-15T04:44:43.818Z,0.00
2023-01-15T04:49:43.765Z,0.00
2023-01-15T04:54:43.716Z,0.00
2023-01-15T04:59:43.614Z,0.00
2023-01-15T05:04:43.625Z,0.00
2023-01-15T05:09:43.496Z,0.00
2023-01-15T05:14:43.452Z,0.00
2023-01-15T05:19:43.355Z,0.00
2023-01-15T05:24:43.314Z,0.00
2023-01-15T05:29:43.214Z,0.00
2023-01-15T05:34:43.170Z,0.00
2023-01-15T05:39:43.121Z,0.00
2023-01-15T05:44:43.032Z,0.00
2023-01-15T05:49:42.952Z,0.00
2023-01-15T05:54:42.909Z,0.00
2023-01-15T05:59:42.814Z,0.00
2023-01-15T06:04:42.763Z,0.00
2023-01-15T06:09:42.683Z,0.00
2023-01-15T06:14:42.624Z,0.00
2023-01-15T06:19:42.556Z,0.00
2023-01-15T06:24:42.481Z,0.00
2023-01-15T06:29:42.443Z,0.00
2023-01-15T06:34:42.363Z,0.00
2023-01-15T06:39:42.259Z,0.00
2023-01-15T06:44:42.300Z,0.00
2023-01-15T06:49:42.164Z,0.00
2023-01-15T06:54:42.088Z,0.00
2023-01-15T06:59:42.097Z,0.00
2023-01-15T07:04:58.142Z,0.00
2023-01-15T07:09:50.519Z,0.00
2023-01-15T07:14:50.452Z,4.00
2023-01-15T07:19:50.397Z,4.00
2023-01-15T07:24:50.271Z,8.00
2023-01-15T07:29:50.254Z,12.00
2023-01-15T07:34:50.167Z,20.00
2023-01-15T07:39:50.113Z,28.00
2023-01-15T07:44:50.036Z,48.00
2023-01-15T07:49:49.989Z,52.00
2023-01-15T07:54:49.890Z,52.00
2023-01-15T07:59:49.851Z,56.00
2023-01-15T08:04:49.777Z,60.00
2023-01-15T08:09:49.733Z,72.00
2023-01-15T08:14:49.634Z,124.00
2023-01-15T08:19:49.585Z,244.00
2023-01-15T08:24:49.504Z,384.00
2023-01-15T08:29:49.444Z,412.00
2023-01-15T08:34:49.375Z,324.00
2023-01-15T08:39:49.330Z,388.00
2023-01-15T08:44:49.239Z,364.00
2023-01-15T08:49:49.190Z,272.00
2023-01-15T08:54:49.115Z,460.00
2023-01-15T08:59:49.084Z,540.00
2023-01-15T09:04:49.047Z,796.00
2023-01-15T09:09:48.891Z,536.00
2023-01-15T09:14:57.587Z,568.00
2023-01-15T09:19:49.807Z,604.00
2023-01-15T09:24:48.726Z,712.00
2023-01-15T09:29:48.622Z,692.00
2023-01-15T09:34:48.604Z,660.00
2023-01-15T09:39:48.527Z,616.00
2023-01-15T09:44:48.685Z,640.00
2023-01-15T09:49:48.392Z,716.00
2023-01-15T09:54:48.301Z,724.00
2023-01-15T09:59:48.281Z,816.00
2023-01-15T10:04:48.172Z,856.00
2023-01-15T10:09:48.103Z,880.00
2023-01-15T10:14:48.037Z,1004.00
2023-01-15T10:19:48.013Z,1568.00
2023-01-15T10:24:47.914Z,2752.00
2023-01-15T10:29:47.851Z,4452.00
2023-01-15T10:34:47.794Z,2476.00
2023-01-15T10:39:47.732Z,1828.00
2023-01-15T10:44:47.649Z,2812.00
2023-01-15T10:49:47.602Z,4280.00
2023-01-15T10:54:47.515Z,1632.00
2023-01-15T10:59:47.511Z,828.00
2023-01-15T11:04:47.376Z,864.00
2023-01-15T11:09:47.343Z,1884.00
2023-01-15T11:14:47.236Z,3584.00
2023-01-15T11:19:47.259Z,3972.00
2023-01-15T11:24:47.089Z,27264.00
2023-01-15T11:29:47.067Z,22016.00
2023-01-15T11:34:46.984Z,6220.00
2023-01-15T11:39:46.946Z,2908.00
2023-01-15T11:44:46.859Z,3212.00
2023-01-15T11:49:46.788Z,2256.00
2023-01-15T11:54:46.739Z,1340.00
2023-01-15T11:59:46.681Z,1488.00
2023-01-15T12:04:46.633Z,1028.00
2023-01-15T12:09:46.516Z,1108.00
2023-01-15T12:14:46.491Z,1296.00
2023-01-15T12:19:46.392Z,2060.00
2023-01-15T12:24:46.333Z,1880.00
2023-01-15T12:29:46.230Z,1348.00
2023-01-15T12:34:47.753Z,1072.00
2023-01-15T12:39:46.131Z,1252.00
2023-01-15T12:44:46.092Z,1480.00
2023-01-15T12:49:45.992Z,948.00
2023-01-15T12:54:45.918Z,932.00
2023-01-15T12:59:45.822Z,1128.00
2023-01-15T13:04:45.806Z,1416.00
2023-01-15T13:09:45.712Z,1500.00
2023-01-15T13:14:46.906Z,2660.00
2023-01-15T13:19:45.714Z,1612.00
2023-01-15T13:24:45.486Z,1236.00
2023-01-15T13:29:45.429Z,928.00
2023-01-15T13:34:45.407Z,724.00
2023-01-15T13:39:45.268Z,728.00
2023-01-15T13:44:45.270Z,556.00
2023-01-15T13:49:45.157Z,732.00
2023-01-15T13:54:45.093Z,748.00
2023-01-15T13:59:45.032Z,684.00
2023-01-15T14:04:44.989Z,820.00
2023-01-15T14:09:44.898Z,1224.00
2023-01-15T14:14:44.857Z,704.00
2023-01-15T14:19:44.784Z,736.00
2023-01-15T14:24:46.537Z,548.00
2023-01-15T14:29:44.655Z,468.00
2023-01-15T14:34:44.621Z,304.00
2023-01-15T14:39:44.503Z,252.00
2023-01-15T14:44:44.483Z,264.00
2023-01-15T14:49:44.363Z,284.00
2023-01-15T14:54:44.310Z,248.00
2023-01-15T14:59:44.228Z,196.00
2023-01-15T15:04:45.536Z,288.00
2023-01-15T15:09:44.156Z,84.00
2023-01-15T15:14:44.043Z,304.00
2023-01-15T15:19:44.035Z,260.00
2023-01-15T15:24:43.908Z,204.00
2023-01-15T15:29:43.832Z,140.00
2023-01-15T15:34:43.780Z,92.00
2023-01-15T15:39:43.674Z,80.00
2023-01-15T15:44:43.700Z,52.00
2023-01-15T15:49:43.557Z,28.00
2023-01-15T15:54:43.500Z,20.00
2023-01-15T15:59:43.419Z,16.00
2023-01-15T16:04:43.371Z,12.00
2023-01-15T16:09:43.300Z,8.00
2023-01-15T16:14:43.228Z,0.00
2023-01-15T16:19:43.136Z,0.00
2023-01-15T16:24:43.099Z,4.00
2023-01-15T16:29:43.022Z,0.00
2023-01-15T16:34:42.973Z,0.00
2023-01-15T16:39:42.883Z,0.00
2023-01-15T16:44:42.848Z,0.00
2023-01-15T16:49:42.743Z,0.00
2023-01-15T16:54:42.705Z,0.00
2023-01-15T16:59:42.629Z,0.00
2023-01-15T17:04:42.630Z,0.00
2023-01-15T17:09:42.497Z,0.00
2023-01-15T17:14:42.445Z,0.00
2023-01-15T17:19:42.366Z,0.00
2023-01-15T17:24:42.304Z,0.00
2023-01-15T17:29:42.207Z,0.00
2023-01-15T17:34:42.163Z,0.00
2023-01-15T17:39:42.086Z,0.00
2023-01-15T17:44:42.074Z,0.00
2023-01-15T17:49:41.994Z,0.00
2023-01-15T17:54:41.897Z,0.00
2023-01-15T17:59:41.806Z,0.00
2023-01-15T18:04:41.779Z,0.00
2023-01-15T18:09:41.698Z,0.00
2023-01-15T18:14:41.624Z,0.00
2023-01-15T18:19:41.579Z,0.00
2023-01-15T18:24:41.552Z,0.00
2023-01-15T18:29:41.449Z,0.00
2023-01-15T18:34:41.369Z,0.00
2023-01-15T18:39:41.265Z,0.00
2023-01-15T18:44:41.238Z,0.00
2023-01-15T18:49:41.206Z,0.00
2023-01-15T18:54:41.113Z,0.00
2023-01-15T18:59:41.055Z,0.00
2023-01-15T19:04:40.993Z,0.00
2023-01-15T19:09:40.912Z,0.00
2023-01-15T19:14:40.904Z,0.00
2023-01-15T19:19:40.773Z,0.00
2023-01-15T19:24:40.718Z,0.00
2023-01-15T19:29:40.634Z,0.00
2023-01-15T19:34:40.578Z,0.00
2023-01-15T19:39:40.539Z,0.00
2023-01-15T19:44:40.438Z,0.00
2023-01-15T19:49:40.360Z,0.00
2023-01-15T19:54:40.263Z,0.00
2023-01-15T19:59:40.235Z,0.00
2023-01-15T20:04:40.246Z,0.00
2023-01-15T20:09:40.074Z,0.00
2023-01-15T20:14:40.021Z,0.00
2023-01-15T20:19:40.079Z,0.00
2023-01-15T20:24:40.237Z,0.00
2023-01-15T20:29:39.821Z,0.00
2023-01-15T20:34:39.763Z,0.00
2023-01-15T20:39:39.728Z,0.00
2023-01-15T20:44:39.627Z,0.00
2023-01-15T20:49:39.647Z,0.00
2023-01-15T20:54:39.908Z,0.00
2023-01-15T20:59:39.401Z,0.00
2023-01-15T21:04:39.375Z,0.00
2023-01-15T21:09:39.266Z,0.00
2023-01-15T21:14:39.285Z,0.00
2023-01-15T21:19:39.133Z,0.00
2023-01-15T21:24:39.094Z,0.00
2023-01-15T21:29:39.004Z,0.00
2023-01-15T21:34:38.939Z,0.00
2023-01-15T21:39:38.874Z,0.00
2023-01-15T21:44:38.806Z,0.00
2023-01-15T21:49:38.726Z,0.00
2023-01-15T21:54:38.670Z,0.00
2023-01-15T21:59:38.649Z,0.00
2023-01-15T22:04:38.552Z,0.00
2023-01-15T22:09:38.455Z,0.00
2023-01-15T22:14:38.404Z,0.00
2023-01-15T22:19:38.466Z,0.00
2023-01-15T22:24:39.089Z,0.00
2023-01-15T22:29:38.186Z,0.00
2023-01-15T22:34:38.114Z,0.00
2023-01-15T22:39:38.052Z,0.00
2023-01-15T22:44:38.111Z,0.00
2023-01-15T22:49:37.916Z,0.00
2023-01-15T22:54:37.859Z,0.00
2023-01-15T22:59:37.779Z,0.00
2023-01-15T23:04:37.784Z,0.00
2023-01-15T23:09:37.645Z,0.00
2023-01-15T23:14:37.593Z,0.00
2023-01-15T23:19:37.512Z,0.00
2023-01-15T23:24:37.460Z,0.00
2023-01-15T23:29:37.381Z,0.00
2023-01-15T23:34:37.331Z,0.00
2023-01-15T23:39:37.236Z,0.00
2023-01-15T23:44:37.190Z,0.00
2023-01-15T23:49:37.123Z,0.00
2023-01-15T23:54:37.060Z,0.00
2023-01-15T23:59:36.976Z,0.00
